Time;durP1;ratioP1;P1;durP2;ratioP2;P2;SDS_P1;SDS_P2;PMS_P1;PMS_P2;Temp;Humidity;BMP_temperature;BMP_pressure;BME280_temperature;BME280_humidity;BME280_pressure;Samples;Min_cycle;Max_cycle;Signal;HPM_P1;HPM_P2
2024/01/02 00:00:20;;;;;;;14.60;9.90;;;;;;;11.09;54.19;98542.44;4920730;29;20051;-86
2024/01/02 00:02:46;;;;;;;15.63;10.07;;;;;;;11.08;54.15;98545.19;4905027;29;20525;-86
2024/01/02 00:05:11;;;;;;;12.52;9.07;;;;;;;11.10;54.10;98559.78;4954110;29;20039;-87
2024/01/02 00:07:37;;;;;;;14.52;9.85;;;;;;;11.09;54.37;98554.69;4936984;29;20035;-84
2024/01/02 00:10:02;;;;;;;16.17;9.57;;;;;;;11.08;54.16;98553.03;4920665;29;20035;-84
2024/01/02 00:12:28;;;;;;;15.82;10.00;;;;;;;11.07;54.22;98557.41;4906669;29;20061;-86
2024/01/02 00:14:53;;;;;;;14.70;10.23;;;;;;;11.03;54.23;98543.75;4908769;29;20458;-84
2024/01/02 00:17:19;;;;;;;14.70;9.48;;;;;;;11.07;54.05;98551.34;4940283;29;20058;-83
2024/01/02 00:19:44;;;;;;;14.05;9.38;;;;;;;11.07;54.11;98548.75;4957454;29;20131;-84
2024/01/02 00:22:10;;;;;;;15.90;9.27;;;;;;;11.07;54.08;98554.81;4940283;29;20507;-84
2024/01/02 00:24:35;;;;;;;16.00;9.48;;;;;;;11.06;54.10;98554.94;4941051;29;20129;-84
2024/01/02 00:27:02;;;;;;;14.25;9.50;;;;;;;11.08;54.18;98542.56;4908734;29;20407;-85
2024/01/02 00:29:28;;;;;;;13.85;9.23;;;;;;;11.07;54.01;98539.13;4957601;29;20394;-84
2024/01/02 00:31:53;;;;;;;15.13;9.07;;;;;;;11.09;54.09;98557.31;4957423;29;20036;-85
2024/01/02 00:34:19;;;;;;;14.93;9.30;;;;;;;11.04;54.33;98548.03;4940567;29;20035;-84
2024/01/02 00:36:44;;;;;;;15.10;8.30;;;;;;;11.10;54.30;98549.34;4908671;29;20062;-83
2024/01/02 00:39:10;;;;;;;14.30;8.70;;;;;;;11.04;54.31;98531.56;4957472;29;20031;-83
2024/01/02 00:41:36;;;;;;;13.77;8.85;;;;;;;11.06;54.30;98536.66;4908643;29;20110;-85
2024/01/02 00:44:01;;;;;;;12.73;8.30;;;;;;;11.03;54.27;98527.28;4925100;29;20534;-82
2024/01/02 00:46:27;;;;;;;13.40;8.45;;;;;;;11.06;54.33;98531.44;4928402;29;20043;-82
2024/01/02 00:48:52;;;;;;;13.88;8.57;;;;;;;11.09;54.09;98542.44;4924175;29;20027;-84
2024/01/02 00:51:18;;;;;;;16.80;8.73;;;;;;;11.09;54.09;98536.41;4924199;29;20553;-88
2024/01/02 00:53:43;;;;;;;11.80;8.23;;;;;;;11.07;54.39;98533.91;4941601;29;20050;-83
2024/01/02 00:56:09;;;;;;;10.77;7.60;;;;;;;11.09;54.27;98536.41;4934955;29;20164;-83
2024/01/02 00:58:34;;;;;;;9.82;7.55;;;;;;;11.10;54.50;98543.25;4909450;29;20102;-83
2024/01/02 01:00:59;;;;;;;11.13;7.32;;;;;;;11.09;54.41;98546.84;4956670;29;20059;-84
2024/01/02 01:03:25;;;;;;;15.05;8.32;;;;;;;11.10;54.26;98545.88;4939864;29;20035;-85
2024/01/02 01:05:50;;;;;;;12.82;8.43;;;;;;;11.10;54.28;98540.66;4939455;29;20031;-84
2024/01/02 01:08:16;;;;;;;15.02;8.10;;;;;;;11.05;54.45;98535.81;4939290;29;20050;-83
2024/01/02 01:10:41;;;;;;;12.73;8.45;;;;;;;11.08;54.44;98527.72;4939612;29;20039;-84
2024/01/02 01:13:07;;;;;;;12.05;8.07;;;;;;;11.08;54.42;98526.91;4939630;29;20035;-84
2024/01/02 01:15:33;;;;;;;13.05;7.97;;;;;;;11.01;54.53;98522.16;4956685;29;20042;-84
2024/01/02 01:17:58;;;;;;;11.43;8.15;;;;;;;11.05;54.35;98527.97;4922912;29;20110;-83
2024/01/02 01:20:24;;;;;;;10.35;6.97;;;;;;;11.03;54.56;98528.09;4923342;29;20031;-83
2024/01/02 01:22:49;;;;;;;10.98;7.32;;;;;;;11.02;54.33;98523.00;4939140;29;20521;-82
2024/01/02 01:25:15;;;;;;;10.80;7.78;;;;;;;11.01;54.49;98535.22;4956371;29;20422;-83
2024/01/02 01:27:40;;;;;;;12.20;8.02;;;;;;;11.00;54.59;98525.72;4939215;29;20086;-83
2024/01/02 01:30:06;;;;;;;10.93;7.38;;;;;;;10.96;54.46;98515.66;4956267;29;20035;-83
2024/01/02 01:32:32;;;;;;;12.68;7.53;;;;;;;11.00;54.33;98517.06;4907665;29;20057;-82
2024/01/02 01:34:58;;;;;;;10.70;7.35;;;;;;;11.00;54.48;98506.63;4938503;29;20483;-82
2024/01/02 01:37:23;;;;;;;11.95;7.32;;;;;;;10.96;54.43;98511.28;4923151;29;20114;-82
2024/01/02 01:39:49;;;;;;;12.45;7.45;;;;;;;10.92;54.26;98495.97;4956048;29;20035;-82
2024/01/02 01:42:14;;;;;;;9.77;7.38;;;;;;;10.96;54.40;98508.66;4938706;29;20118;-82
2024/01/02 01:44:40;;;;;;;12.90;7.45;;;;;;;10.94;54.83;98510.59;4923004;29;20039;-83
2024/01/02 01:47:05;;;;;;;12.43;7.40;;;;;;;10.94;54.72;98513.19;4955895;29;20035;-84
2024/01/02 01:49:31;;;;;;;9.63;6.57;;;;;;;10.89;54.70;98504.88;4922460;29;20408;-82
2024/01/02 01:51:56;;;;;;;10.88;7.40;;;;;;;10.93;54.76;98505.47;4938242;29;20483;-84
2024/01/02 01:54:22;;;;;;;11.88;7.30;;;;;;;10.91;54.55;98508.22;4923506;29;20123;-82
2024/01/02 01:56:47;;;;;;;12.82;7.47;;;;;;;10.89;54.73;98504.06;4938348;29;20454;-83
2024/01/02 01:59:13;;;;;;;10.18;7.38;;;;;;;10.85;54.49;98503.50;4922671;29;20047;-82
2024/01/02 02:01:38;;;;;;;9.45;6.63;;;;;;;10.87;54.57;98509.41;4938209;29;20079;-82
2024/01/02 02:04:04;;;;;;;11.35;7.20;;;;;;;10.84;54.42;98499.22;4906965;29;20042;-82
2024/01/02 02:06:29;;;;;;;9.63;6.68;;;;;;;10.87;54.62;98504.19;4938696;29;20494;-81
2024/01/02 02:08:55;;;;;;;10.27;7.15;;;;;;;10.81;54.50;98496.84;4906393;29;20046;-82
2024/01/02 02:11:20;;;;;;;11.35;7.10;;;;;;;10.83;54.53;98513.22;4938862;29;20031;-82
2024/01/02 02:13:47;;;;;;;10.23;7.15;;;;;;;10.81;54.58;98522.94;4922514;29;20035;-83
2024/01/02 02:16:13;;;;;;;11.60;7.10;;;;;;;10.73;54.41;98509.69;4906880;29;20046;-83
2024/01/02 02:18:39;;;;;;;9.40;6.78;;;;;;;10.73;54.63;98512.31;4938317;29;20035;-82
2024/01/02 02:21:04;;;;;;;10.88;7.38;;;;;;;10.75;54.45;98518.22;4922415;29;20403;-82
2024/01/02 02:23:30;;;;;;;11.68;7.28;;;;;;;10.72;54.42;98510.63;4938590;29;20042;-84
2024/01/02 02:25:55;;;;;;;10.38;6.55;;;;;;;10.71;54.55;98504.59;4955884;29;20489;-85
2024/01/02 02:28:21;;;;;;;11.20;7.10;;;;;;;10.70;54.19;98510.75;4938104;29;20039;-85
2024/01/02 02:30:47;;;;;;;9.90;7.40;;;;;;;10.65;54.52;98492.84;4922435;29;20066;-84
2024/01/02 02:33:12;;;;;;;13.45;7.95;;;;;;;10.60;54.63;98496.81;4922776;29;20388;-85
2024/01/02 02:35:37;;;;;;;11.15;7.63;;;;;;;10.61;54.61;98501.06;4921372;29;20043;-84
2024/01/02 02:38:03;;;;;;;11.05;8.07;;;;;;;10.63;54.46;98515.66;4955529;29;20039;-84
2024/01/02 02:40:28;;;;;;;10.60;7.30;;;;;;;10.60;54.52;98510.69;4938153;29;20474;-84
2024/01/02 02:42:54;;;;;;;10.57;7.68;;;;;;;10.58;54.68;98504.75;4955157;29;20031;-85
2024/01/02 02:45:19;;;;;;;11.73;7.60;;;;;;;10.56;54.60;98501.41;4938611;29;20031;-84
2024/01/02 02:47:46;;;;;;;13.25;8.23;;;;;;;10.50;54.48;98491.50;4921919;29;20114;-86
2024/01/02 02:50:12;;;;;;;13.68;8.00;;;;;;;10.52;54.50;98492.19;4906706;29;20418;-85
2024/01/02 02:52:37;;;;;;;10.82;7.65;;;;;;;10.52;54.51;98496.59;4929023;29;20031;-84
2024/01/02 02:55:03;;;;;;;11.07;8.18;;;;;;;10.48;54.72;98493.38;4939765;29;20039;-84
2024/01/02 02:57:29;;;;;;;12.63;7.97;;;;;;;10.47;54.93;98494.34;4938041;29;20074;-85
2024/01/02 02:59:54;;;;;;;12.00;8.23;;;;;;;10.48;54.82;98496.84;4921613;29;20051;-85
2024/01/02 03:02:20;;;;;;;12.82;8.70;;;;;;;10.48;54.65;98491.63;4943308;29;20031;-83
2024/01/02 03:04:45;;;;;;;12.70;8.98;;;;;;;10.46;54.68;98490.06;4942376;29;20051;-83
2024/01/02 03:07:11;;;;;;;14.15;8.75;;;;;;;10.44;54.80;98489.38;4921976;29;20031;-83
2024/01/02 03:09:37;;;;;;;10.77;8.23;;;;;;;10.47;54.65;98494.34;4905199;29;20419;-82
2024/01/02 03:12:03;;;;;;;11.18;7.90;;;;;;;10.45;54.71;98486.63;4922017;29;20035;-82
2024/01/02 03:14:28;;;;;;;12.55;8.75;;;;;;;10.49;54.62;98495.03;4938364;29;20034;-83
2024/01/02 03:16:54;;;;;;;13.07;8.77;;;;;;;10.47;54.80;98482.13;4938758;29;20046;-85
2024/01/02 03:19:19;;;;;;;12.80;9.48;;;;;;;10.45;54.57;98486.63;4955450;29;20038;-81
2024/01/02 03:21:45;;;;;;;12.70;9.43;;;;;;;10.45;54.88;98476.19;4937378;29;20125;-82
2024/01/02 03:24:10;;;;;;;12.55;8.95;;;;;;;10.44;54.65;98473.72;4937569;29;20046;-82
2024/01/02 03:26:36;;;;;;;13.75;9.00;;;;;;;10.44;54.88;98474.53;4954950;29;20126;-84
2024/01/02 03:29:01;;;;;;;11.10;8.48;;;;;;;10.41;54.91;98480.00;4937475;29;20035;-82
2024/01/02 03:31:27;;;;;;;12.57;8.70;;;;;;;10.47;54.73;98489.13;4922316;29;20027;-83
2024/01/02 03:33:52;;;;;;;13.68;9.45;;;;;;;10.46;54.69;98488.28;4954445;29;20110;-83
2024/01/02 03:36:18;;;;;;;13.90;9.07;;;;;;;10.43;54.78;98482.47;4921382;29;20055;-84
2024/01/02 03:38:51;;;;;;;16.10;9.52;;;;;;;10.46;54.97;98493.50;4905874;29;20055;-83
2024/01/02 03:41:16;;;;;;;12.75;8.80;;;;;;;10.43;54.87;98493.75;4922250;29;20070;-84
2024/01/02 03:43:42;;;;;;;14.57;9.10;;;;;;;10.44;54.90;98489.38;4921420;29;20079;-82
2024/01/02 03:46:08;;;;;;;15.20;9.30;;;;;;;10.45;54.88;98491.00;4908341;29;20035;-88
2024/01/02 03:48:34;;;;;;;16.85;9.77;;;;;;;10.50;54.91;98497.53;4925484;29;20118;-84
2024/01/02 03:51:02;;;;;;;15.23;10.05;;;;;;;10.51;54.83;98490.53;4925900;29;20075;-84
2024/01/02 03:53:28;;;;;;;12.50;8.45;;;;;;;10.52;54.72;98501.81;4941650;29;20094;-86
2024/01/02 03:55:55;;;;;;;16.95;9.93;;;;;;;10.40;55.13;98474.91;4925261;29;20038;-83
2024/01/02 03:58:20;;;;;;;12.88;8.55;;;;;;;10.54;54.94;98499.91;4925583;29;20027;-84
2024/01/02 04:00:46;;;;;;;17.45;9.80;;;;;;;10.53;54.99;98495.63;4951519;29;20048;-84
2024/01/02 04:03:11;;;;;;;15.57;9.52;;;;;;;10.53;55.16;98493.00;4981863;29;20022;-84
2024/01/02 04:05:37;;;;;;;17.70;9.93;;;;;;;10.55;54.92;98494.56;4965434;28;20066;-84
2024/01/02 04:08:02;;;;;;;12.82;8.95;;;;;;;10.56;55.05;98496.19;4965461;28;20039;-84
2024/01/02 04:10:28;;;;;;;15.10;9.32;;;;;;;10.57;55.07;98503.09;4965484;29;20120;-84
2024/01/02 04:12:53;;;;;;;17.08;10.10;;;;;;;10.53;55.04;98498.22;4982317;28;20035;-83
2024/01/02 04:15:19;;;;;;;16.70;9.70;;;;;;;10.53;54.90;98495.63;4950199;29;20030;-83
2024/01/02 04:17:44;;;;;;;21.35;11.05;;;;;;;10.54;55.10;98500.72;4934667;29;20043;-84
2024/01/02 04:20:10;;;;;;;15.68;9.75;;;;;;;10.59;54.96;98502.97;4966735;28;20030;-83
2024/01/02 04:22:36;;;;;;;17.05;10.40;;;;;;;10.58;54.98;98506.53;4966807;28;20023;-84
2024/01/02 04:25:01;;;;;;;17.60;10.82;;;;;;;10.57;54.92;98505.69;4950849;29;20034;-84
2024/01/02 04:27:27;;;;;;;15.38;10.40;;;;;;;10.58;55.10;98504.75;4950901;29;20026;-84
2024/01/02 04:29:52;;;;;;;14.82;9.63;;;;;;;10.56;54.81;98509.25;4983210;28;20039;-83
2024/01/02 04:32:18;;;;;;;17.75;10.15;;;;;;;10.58;54.87;98506.53;4976173;29;20059;-81
2024/01/02 04:34:43;;;;;;;16.90;10.80;;;;;;;10.56;55.25;98492.78;4954275;29;20407;-85
2024/01/02 04:37:09;;;;;;;15.15;10.00;;;;;;;10.50;54.86;98489.72;4930538;29;20035;-85
2024/01/02 04:39:34;;;;;;;14.20;10.45;;;;;;;10.53;55.06;98509.53;4946780;29;20038;-82
2024/01/02 04:42:03;;;;;;;14.82;10.43;;;;;;;10.53;55.02;98509.53;4964399;29;20509;-87
2024/01/02 04:44:28;;;;;;;17.80;11.00;;;;;;;10.52;55.02;98507.03;4917198;29;20071;-82
2024/01/02 04:46:53;;;;;;;17.17;10.88;;;;;;;10.52;55.03;98507.84;4932470;29;20058;-82
2024/01/02 04:49:19;;;;;;;9.80;7.22;;;;;;;10.83;67.77;98511.44;4932784;29;20384;-86
2024/01/02 04:51:45;;;;;;;13.50;7.88;;;;;;;10.88;65.73;98503.25;4965353;29;20054;-79
2024/01/02 04:54:10;;;;;;;13.65;9.32;;;;;;;10.91;63.45;98512.59;4967225;29;20042;-85
2024/01/02 04:56:36;;;;;;;14.45;9.35;;;;;;;10.83;62.52;98502.75;4965055;28;20039;-82
2024/01/02 04:59:01;;;;;;;16.45;9.07;;;;;;;10.81;61.69;98509.91;4960480;29;20032;-83
2024/01/02 05:01:27;;;;;;;14.50;9.82;;;;;;;10.78;60.88;98517.97;4949294;29;20046;-86
2024/01/02 05:03:52;;;;;;;16.50;7.70;;;;;;;11.13;71.44;98522.97;4979881;29;20027;-84
2024/01/02 05:06:18;;;;;;;15.55;7.55;;;;;;;11.25;71.13;98517.69;4938736;29;20035;-84
2024/01/02 05:08:43;;;;;;;14.48;8.63;;;;;;;11.36;70.59;98515.00;4956519;29;20023;-86
2024/01/02 05:11:09;;;;;;;14.38;7.90;;;;;;;11.26;68.12;98501.03;4956687;29;20031;-88
2024/01/02 05:13:34;;;;;;;17.25;9.52;;;;;;;11.19;66.31;98505.94;4964762;29;20035;-82
2024/01/02 05:16:00;;;;;;;18.15;9.25;;;;;;;11.16;65.46;98511.41;4960822;29;20042;-82
2024/01/02 05:18:25;;;;;;;17.05;9.27;;;;;;;11.08;64.42;98500.78;4962717;29;20443;-88
2024/01/02 05:20:50;;;;;;;14.32;9.80;;;;;;;11.00;63.94;98504.81;4960887;29;20027;-84
2024/01/02 05:23:16;;;;;;;15.57;10.40;;;;;;;10.87;63.34;98504.19;4943012;29;20031;-85
2024/01/02 05:25:42;;;;;;;16.60;10.68;;;;;;;10.85;62.69;98509.53;4927249;29;20103;-85
2024/01/02 05:28:07;;;;;;;17.80;10.93;;;;;;;10.77;62.18;98501.50;4928578;29;20047;-86
2024/01/02 05:30:33;;;;;;;16.35;10.63;;;;;;;10.75;61.94;98506.00;4941959;29;20039;-86
2024/01/02 05:32:58;;;;;;;16.75;10.10;;;;;;;10.70;61.46;98499.50;4928827;29;20099;-88
2024/01/02 05:35:24;;;;;;;17.98;10.15;;;;;;;10.69;60.88;98501.28;4928806;29;20035;-86
2024/01/02 05:37:49;;;;;;;18.08;11.45;;;;;;;10.59;60.75;98490.72;4944765;29;20051;-86
2024/01/02 05:40:15;;;;;;;16.85;9.93;;;;;;;10.61;60.60;98501.06;4928747;29;20032;-88
2024/01/02 05:42:40;;;;;;;15.48;10.20;;;;;;;10.57;60.37;98504.88;4945026;29;20061;-92
2024/01/02 05:45:06;;;;;;;13.48;9.57;;;;;;;10.52;60.04;98509.66;4946938;29;20035;-90
2024/01/02 05:47:32;;;;;;;13.07;9.20;;;;;;;10.48;59.42;98509.88;4944440;29;20037;-87
2024/01/02 05:49:57;;;;;;;14.23;9.20;;;;;;;10.46;59.43;98517.00;4946368;29;20091;-90
2024/01/02 05:52:23;;;;;;;15.05;9.68;;;;;;;10.49;59.41;98528.97;4961030;29;20402;-91
2024/01/02 05:54:48;;;;;;;14.98;9.63;;;;;;;10.47;59.32;98521.25;4948573;29;20042;-90
2024/01/02 05:57:14;;;;;;;16.48;9.85;;;;;;;10.47;59.29;98523.88;4928125;29;20039;-83
2024/01/02 05:59:39;;;;;;;15.45;7.53;;;;;;;10.59;67.13;98527.28;4926183;29;20075;-88
2024/01/02 06:02:05;;;;;;;16.17;7.95;;;;;;;11.03;73.19;98538.53;4944090;29;20031;-85
2024/01/02 06:04:30;;;;;;;12.88;7.35;;;;;;;11.01;68.40;98539.63;4942790;29;20133;-82
2024/01/02 06:06:56;;;;;;;17.20;8.02;;;;;;;10.91;66.39;98531.72;4957969;29;20023;-81
2024/01/02 06:09:22;;;;;;;16.02;8.93;;;;;;;10.87;65.28;98545.97;4940062;29;20414;-82
2024/01/02 06:11:48;;;;;;;14.95;9.15;;;;;;;10.83;64.83;98549.75;4941943;29;20479;-82
2024/01/02 06:14:15;;;;;;;16.33;9.93;;;;;;;10.79;63.96;98545.75;4941476;29;20043;-82
2024/01/02 06:16:41;;;;;;;17.48;10.13;;;;;;;10.75;63.09;98544.34;4958145;29;20031;-83
2024/01/02 06:19:06;;;;;;;17.15;10.23;;;;;;;10.73;62.63;98552.28;4942025;29;20039;-82
2024/01/02 06:21:32;;;;;;;19.00;11.60;;;;;;;10.66;62.00;98551.13;4941441;29;20511;-82
2024/01/02 06:23:57;;;;;;;17.58;11.98;;;;;;;10.66;61.79;98565.00;4927789;29;20380;-82
2024/01/02 06:26:23;;;;;;;20.70;13.13;;;;;;;10.63;61.36;98559.22;4910441;29;20517;-82
2024/01/02 06:28:48;;;;;;;20.33;12.13;;;;;;;10.66;60.65;98570.22;4926244;29;20040;-81
2024/01/02 06:31:14;;;;;;;17.05;11.20;;;;;;;10.59;60.45;98558.59;4960014;29;20090;-82
2024/01/02 06:33:44;;;;;;;20.35;12.13;;;;;;;10.64;60.54;98574.75;4924826;29;20042;-82
2024/01/02 06:36:10;;;;;;;19.27;12.30;;;;;;;10.66;60.12;98580.66;4926533;29;20035;-82
2024/01/02 06:38:35;;;;;;;19.60;13.18;;;;;;;10.61;59.92;98579.34;4914357;29;20046;-83
2024/01/02 06:41:02;;;;;;;19.70;12.90;;;;;;;10.66;59.77;98590.28;4925554;29;20042;-83
2024/01/02 06:43:28;;;;;;;19.48;11.85;;;;;;;10.69;62.00;98590.06;4945737;29;20039;-81
2024/01/02 06:45:53;;;;;;;18.50;12.02;;;;;;;10.73;62.40;98582.78;4967475;29;20026;-85
2024/01/02 06:48:19;;;;;;;21.40;12.90;;;;;;;10.77;62.16;98595.50;4958455;29;20055;-86
2024/01/02 06:50:44;;;;;;;22.65;13.15;;;;;;;10.75;62.00;98596.56;4930599;29;20036;-85
2024/01/02 06:53:10;;;;;;;22.52;15.38;;;;;;;10.65;61.37;98581.59;4944382;29;20043;-84
2024/01/02 06:55:35;;;;;;;25.73;12.55;;;;;;;10.77;65.42;98595.50;4943301;29;20035;-86
2024/01/02 06:58:01;;;;;;;20.75;12.95;;;;;;;10.82;64.85;98589.91;4961372;29;20039;-85
2024/01/02 07:00:26;;;;;;;24.58;11.50;;;;;;;10.94;67.51;98594.16;4960331;29;20055;-88
2024/01/02 07:02:52;;;;;;;19.88;10.85;;;;;;;11.21;72.55;98593.69;4945109;29;20165;-87
2024/01/02 07:05:17;;;;;;;23.17;13.18;;;;;;;11.19;68.39;98589.53;4946244;29;20475;-90
2024/01/02 07:07:43;;;;;;;21.02;12.90;;;;;;;11.21;66.11;98587.63;4951002;29;20490;-82
2024/01/02 07:10:08;;;;;;;19.90;11.43;;;;;;;11.24;68.24;98590.00;4945214;29;20038;-81
2024/01/02 07:12:34;;;;;;;18.80;10.90;;;;;;;11.21;66.63;98580.63;4928503;29;20584;-83
2024/01/02 07:14:59;;;;;;;18.92;11.63;;;;;;;11.18;65.31;98585.25;4962050;29;20034;-82
2024/01/02 07:17:25;;;;;;;15.80;11.15;;;;;;;11.18;64.90;98587.88;4970376;29;20027;-91
2024/01/02 07:19:51;;;;;;;21.23;11.45;;;;;;;11.17;65.62;98578.41;4948115;29;20039;-80
2024/01/02 07:22:17;;;;;;;21.92;12.18;;;;;;;11.19;64.31;98579.91;4965802;29;20024;-90
2024/01/02 07:24:43;;;;;;;19.10;12.77;;;;;;;11.16;63.89;98579.34;4930883;29;20536;-84
2024/01/02 07:27:10;;;;;;;19.65;12.68;;;;;;;11.14;63.22;98589.91;4945560;29;20037;-86
2024/01/02 07:29:35;;;;;;;21.55;12.02;;;;;;;11.14;62.58;98582.06;4948782;29;20402;-91
2024/01/02 07:32:03;;;;;;;19.17;13.02;;;;;;;11.13;62.19;98582.19;4933868;29;20058;-87
2024/01/02 07:34:29;;;;;;;20.73;11.90;;;;;;;11.13;61.93;98584.81;4937526;29;20117;-82
2024/01/02 07:36:54;;;;;;;17.90;11.52;;;;;;;11.11;61.64;98576.28;4959762;29;20035;-84
2024/01/02 07:39:21;;;;;;;19.45;13.10;;;;;;;11.14;61.42;98581.25;4943219;29;20053;-78
2024/01/02 07:41:46;;;;;;;18.23;9.60;;;;;;;11.33;68.44;98580.59;4943502;29;20114;-82
2024/01/02 07:44:12;;;;;;;19.08;10.85;;;;;;;11.41;66.17;98581.59;4927360;29;20055;-85
2024/01/02 07:46:37;;;;;;;17.63;8.70;;;;;;;12.05;72.27;98576.38;4945435;29;20031;-80
2024/01/02 07:49:03;;;;;;;14.98;8.43;;;;;;;12.47;70.50;98586.75;4942706;29;20498;-81
2024/01/02 07:51:28;;;;;;;15.73;8.27;;;;;;;12.72;69.24;98576.78;4931590;29;20024;-79
2024/01/02 07:53:54;;;;;;;13.40;9.52;;;;;;;12.72;65.76;98590.69;4961634;29;20042;-88
2024/01/02 07:56:19;;;;;;;14.07;9.70;;;;;;;12.61;64.37;98586.38;4933127;29;20042;-87
2024/01/02 07:58:46;;;;;;;13.85;9.32;;;;;;;12.54;63.67;98587.03;4946323;29;20063;-81
2024/01/02 08:01:13;;;;;;;17.52;10.45;;;;;;;12.46;62.70;98592.94;4928110;29;20048;-81
2024/01/02 08:03:38;;;;;;;15.55;11.05;;;;;;;12.34;62.44;98586.97;4968683;29;20034;-81
2024/01/02 08:06:04;;;;;;;29.48;11.10;;;;;;;12.31;62.02;98603.78;4941996;29;20019;-82
2024/01/02 08:08:29;;;;;;;17.85;10.70;;;;;;;12.22;61.53;98593.25;4960130;29;20050;-79
2024/01/02 08:10:55;;;;;;;16.42;11.00;;;;;;;12.22;61.39;98595.88;4972056;29;20027;-77
2024/01/02 08:13:20;;;;;;;18.75;8.27;;;;;;;12.31;66.79;98602.94;4958930;29;20038;-83
2024/01/02 08:15:46;;;;;;;17.23;7.63;;;;;;;12.82;67.89;98607.28;4945654;29;20019;-77
2024/01/02 08:18:12;;;;;;;11.05;7.50;;;;;;;12.86;65.76;98605.19;4936352;29;20080;-78
2024/01/02 08:20:37;;;;;;;19.70;8.23;;;;;;;12.79;64.09;98596.22;4942699;29;20031;-80
2024/01/02 08:23:03;;;;;;;16.63;8.60;;;;;;;12.76;63.43;98607.81;4959919;23;20078;-84
2024/01/02 08:25:29;;;;;;;22.25;8.73;;;;;;;12.73;63.24;98618.53;4937492;29;20039;-80
2024/01/02 08:27:55;;;;;;;12.77;8.02;;;;;;;12.66;62.79;98607.75;4921022;29;20043;-80
2024/01/02 08:30:21;;;;;;;18.40;9.05;;;;;;;12.64;62.81;98614.09;4921302;29;20037;-80
2024/01/02 08:32:46;;;;;;;19.50;9.18;;;;;;;12.64;63.58;98627.19;4938627;29;20047;-79
2024/01/02 08:35:12;;;;;;;20.48;7.60;;;;;;;12.81;66.53;98617.88;4939679;29;20043;-79
2024/01/02 08:37:37;;;;;;;21.60;8.38;;;;;;;12.86;64.85;98618.28;4924483;29;20035;-80
2024/01/02 08:40:03;;;;;;;21.58;8.23;;;;;;;12.90;63.75;98603.13;4940934;29;20051;-81
2024/01/02 08:42:28;;;;;;;17.85;8.30;;;;;;;12.92;63.22;98609.91;4924808;29;20118;-78
2024/01/02 08:44:54;;;;;;;18.73;9.05;;;;;;;12.93;63.09;98614.16;4924391;29;20046;-80
2024/01/02 08:47:19;;;;;;;16.65;7.90;;;;;;;12.95;62.93;98616.66;4926159;29;20031;-82
2024/01/02 08:49:46;;;;;;;24.70;8.15;;;;;;;13.27;67.69;98615.59;4940598;29;20130;-78
2024/01/02 08:52:12;;;;;;;22.70;7.63;;;;;;;13.45;66.56;98613.97;4925193;29;20051;-80
2024/01/02 08:54:38;;;;;;;18.65;7.40;;;;;;;13.56;66.40;98611.19;4942430;29;20467;-80
2024/01/02 08:57:04;;;;;;;20.25;6.95;;;;;;;13.78;67.01;98603.19;4940728;29;20070;-79
2024/01/02 08:59:29;;;;;;;18.67;6.97;;;;;;;13.80;64.94;98590.75;4940552;29;20035;-79
2024/01/02 09:01:55;;;;;;;26.08;8.27;;;;;;;13.81;63.25;98585.34;4936724;29;20039;-79
2024/01/02 09:04:21;;;;;;;17.85;6.18;;;;;;;13.79;62.32;98578.59;4947000;29;20133;-81
2024/01/02 09:06:46;;;;;;;12.27;6.00;;;;;;;13.75;61.93;98591.97;4936195;29;20051;-76
2024/01/02 09:09:12;;;;;;;11.45;5.88;;;;;;;13.74;61.37;98598.22;4951513;29;20043;-75
2024/01/02 09:11:37;;;;;;;12.48;5.93;;;;;;;13.73;60.95;98598.34;4938686;29;20063;-77
2024/01/02 09:14:03;;;;;;;13.15;5.57;;;;;;;13.72;60.41;98594.06;4937529;29;20039;-76
2024/01/02 09:16:30;;;;;;;9.38;5.43;;;;;;;13.71;60.05;98592.41;4922021;29;20042;-79
2024/01/02 09:18:56;;;;;;;7.57;4.65;;;;;;;13.70;59.71;98596.00;4920308;29;20047;-78
2024/01/02 09:21:21;;;;;;;14.00;5.50;;;;;;;13.65;59.46;98612.16;4905871;29;20399;-79
2024/01/02 09:23:47;;;;;;;9.60;5.03;;;;;;;13.60;59.34;98603.03;4954010;29;20131;-76
2024/01/02 09:26:13;;;;;;;7.28;4.50;;;;;;;13.50;59.30;98600.44;4905291;29;20088;-76
2024/01/02 09:28:39;;;;;;;8.15;4.53;;;;;;;13.48;58.93;98605.81;4937534;29;20054;-76
2024/01/02 09:31:04;;;;;;;8.82;4.30;;;;;;;13.46;58.94;98596.47;4920885;29;20402;-78
2024/01/02 09:33:30;;;;;;;8.10;4.22;;;;;;;13.41;58.80;98594.25;4938191;29;20513;-79
2024/01/02 09:35:55;;;;;;;12.63;5.80;;;;;;;13.65;64.46;98590.38;4923814;29;20075;-75
2024/01/02 09:38:21;;;;;;;15.43;5.63;;;;;;;13.75;63.05;98589.34;4955114;29;20031;-74
2024/01/02 09:40:54;;;;;;;10.00;5.07;;;;;;;13.78;61.33;98588.25;4923271;29;20035;-76
2024/01/02 09:43:57;;;;;;;10.45;4.78;;;;;;;13.73;60.10;98590.47;4938712;29;20123;-75
2024/01/02 09:46:41;;;;;;;8.25;4.47;;;;;;;13.66;59.54;98589.38;4939004;29;20502;-75
2024/01/02 09:49:06;;;;;;;9.45;4.43;;;;;;;13.57;58.92;98593.69;4957207;29;20032;-77
2024/01/02 09:52:10;;;;;;;11.73;4.07;;;;;;;13.53;58.78;98602.78;4961317;29;20098;-85
2024/01/02 09:54:41;;;;;;;13.82;4.60;;;;;;;13.60;61.33;98605.66;4947520;29;20152;-86
2024/01/02 09:57:30;;;;;;;10.75;4.53;;;;;;;13.53;59.83;98600.97;4959487;29;20046;-85
2024/01/02 10:00:03;;;;;;;7.13;3.90;;;;;;;13.57;59.09;98605.00;4948244;29;20039;-85
2024/01/02 10:02:45;;;;;;;6.80;4.10;;;;;;;13.51;58.68;98608.16;4955684;29;20375;-85
2024/01/02 10:05:23;;;;;;;6.90;3.78;;;;;;;13.48;58.55;98618.13;4940116;29;20039;-85
2024/01/02 10:07:56;;;;;;;6.90;3.65;;;;;;;13.38;57.93;98607.63;4957308;29;20031;-86
2024/01/02 10:10:33;;;;;;;8.25;3.35;;;;;;;13.30;58.09;98613.53;4956195;29;20038;-88
2024/01/02 10:13:11;;;;;;;4.60;3.13;;;;;;;13.27;57.83;98618.22;4924554;29;20043;-86
2024/01/02 10:15:48;;;;;;;4.23;3.00;;;;;;;13.19;57.69;98611.03;4957614;29;20042;-86
2024/01/02 10:18:40;;;;;;;4.20;2.85;;;;;;;13.14;57.59;98605.34;4956767;29;20259;-87
2024/01/02 10:21:24;;;;;;;4.25;2.85;;;;;;;13.01;57.11;98609.09;4940479;29;20031;-87
2024/01/02 10:24:07;;;;;;;5.00;2.70;;;;;;;13.02;57.21;98623.84;4957635;29;20146;-87
2024/01/02 10:26:38;;;;;;;5.97;2.72;;;;;;;12.98;56.98;98622.47;4957744;29;20039;-88
2024/01/02 10:29:04;;;;;;;6.18;2.63;;;;;;;12.92;57.14;98623.00;4924302;29;20042;-86
2024/01/02 10:31:46;;;;;;;4.50;2.83;;;;;;;12.92;57.00;98625.63;4924747;29;20039;-88
2024/01/02 10:34:37;;;;;;;5.55;2.72;;;;;;;12.87;56.97;98627.78;4943516;29;20055;-86
2024/01/02 10:37:06;;;;;;;5.53;3.17;;;;;;;12.79;56.74;98614.53;4939901;29;20094;-87
2024/01/02 10:39:40;;;;;;;4.15;2.85;;;;;;;12.82;56.58;98617.75;4923843;29;20039;-87
2024/01/02 10:42:54;;;;;;;5.22;2.70;;;;;;;12.84;56.44;98610.56;4940937;29;20019;-87
2024/01/02 10:45:23;;;;;;;3.92;2.85;;;;;;;12.83;56.16;98608.09;4860734;29;20042;-87
2024/01/02 10:48:09;;;;;;;4.40;2.65;;;;;;;12.82;56.42;98619.50;4847067;29;20033;-88
2024/01/02 10:51:10;;;;;;;3.92;2.50;;;;;;;12.75;56.73;98602.69;4860196;29;20596;-84
2024/01/02 10:53:49;;;;;;;3.40;2.50;;;;;;;12.78;56.35;98612.91;4830697;29;20033;-90
2024/01/02 10:56:42;;;;;;;4.65;2.78;;;;;;;12.74;56.79;98599.22;4845131;29;20041;-86
2024/01/02 10:59:33;;;;;;;5.45;2.92;;;;;;;12.72;56.79;98601.16;4861929;29;20105;-87
2024/01/02 11:02:23;;;;;;;7.10;3.33;;;;;;;12.73;56.82;98604.59;4833927;29;20049;-87
2024/01/02 11:05:09;;;;;;;4.13;2.70;;;;;;;12.76;57.21;98607.81;4861493;29;20116;-86
2024/01/02 11:07:36;;;;;;;4.72;2.83;;;;;;;12.79;56.93;98598.81;4833306;29;20057;-86
2024/01/02 11:10:01;;;;;;;4.85;2.92;;;;;;;12.80;56.82;98597.88;4847280;29;20049;-88
2024/01/02 11:12:28;;;;;;;6.30;2.63;;;;;;;12.79;57.02;98594.44;4847118;29;20033;-88
2024/01/02 11:14:54;;;;;;;5.90;2.95;;;;;;;12.79;56.87;98581.34;4847766;29;20033;-85
2024/01/02 11:17:22;;;;;;;5.65;2.95;;;;;;;12.76;56.91;98578.13;4922787;29;20446;-87
2024/01/02 11:19:51;;;;;;;5.90;3.58;;;;;;;12.80;56.70;98567.25;4920845;29;20031;-88
2024/01/02 11:22:20;;;;;;;7.20;4.50;;;;;;;12.82;56.82;98559.25;4923916;29;20487;-85
2024/01/02 11:24:52;;;;;;;8.52;5.03;;;;;;;12.88;56.51;98560.53;4925274;29;20056;-87